Etusivu
METAR-TAF:

METAR-TAF

Lentoasemat :

Stanton, Minnesota, Yhdysvallat

Leveyspiiri: 44-28-32N, Pituuspiiri: 093-00-59W, korkeus merenpinnasta: 280 m

Tämänhetkinen sää

Tämä raportti tehtiin 22 minuuttia sitten, kello 10.36 UTC
Tuuli 3 kn etelästä
Lämpötila -8°C
Kosteus 92%
Ilmanpaine 1015 hPa
Näkyvyys: 16.1 km
selkeää

METAR: KSYN 241036Z AUTO 19003KT 10SM CLR M08/M09 A2996 RMK AO2 T10781088

Aika: 04:58 (10:58 UTC)


TAF: puuttuu

Säähavainnot ja -ennusteet yli 4000 lentoasemalta (METAR- ja TAF-raportit).

Käytössä olevat sääasemat on merkitty karttaan keltaisilla ja punaisilla pisteillä.

Aseta hiiri pisteen päälle nähdäksesi sääaseman nimen.

Klikkaa sitten nähdäksesi säähavainnot ja -ennusteet.

Kartan vaihtaminen: klikkaa mustalla rastilla varustettuja vihreitä pisteitä, niin voit zoomata sisään; viivalla varustettua vihreää pistettä, niin voit zoomata ulos tai vihreitä nuolia, niin pääset viereisille kartoille.


METAR-TAF: